Metar z pełnej godziny Komunikat METAR ze strony awiacja.imgw.pl Metar G00 EPLL METAR EPLL 230100Z 27008KT 9999 BKN004 16/15 Q1008 =